Time;durP1;ratioP1;P1;durP2;ratioP2;P2;SDS_P1;SDS_P2;PMS_P1;PMS_P2;Temp;Humidity;BMP_temperature;BMP_pressure;BME280_temperature;BME280_humidity;BME280_pressure;Samples;Min_cycle;Max_cycle;Signal;HPM_P1;HPM_P2
2021/09/17 00:02:18;;;;;;;3.40;3.10;;;;;;;;;;5069213;28;20511;-57
2021/09/17 00:04:44;;;;;;;3.53;3.23;;;;;;;;;;5052517;28;20586;-57
2021/09/17 00:07:10;;;;;;;3.73;2.70;;;;;;;;;;5055062;28;20180;-57
2021/09/17 00:09:36;;;;;;;3.30;3.00;;;;;;;;;;5071512;28;20218;-57
2021/09/17 00:12:03;;;;;;;2.80;2.60;;;;;;;;;;5069424;28;20780;-57
2021/09/17 00:14:29;;;;;;;3.50;3.20;;;;;;;;;;5073948;28;20191;-57
2021/09/17 00:16:56;;;;;;;3.67;3.37;;;;;;;;;;5082766;28;20264;-57
2021/09/17 00:19:22;;;;;;;3.30;2.90;;;;;;;;;;5090078;28;20258;-57
2021/09/17 00:21:48;;;;;;;3.30;3.00;;;;;;;;;;5090435;28;20293;-57
2021/09/17 00:24:14;;;;;;;3.40;2.90;;;;;;;;;;5090888;28;20676;-57
2021/09/17 00:26:40;;;;;;;2.67;2.47;;;;;;;;;;5092218;28;20179;-57
2021/09/17 00:29:06;;;;;;;3.70;3.40;;;;;;;;;;5092366;28;20187;-57
2021/09/17 00:31:32;;;;;;;2.93;2.63;;;;;;;;;;5092428;28;20191;-57
2021/09/17 00:33:58;;;;;;;3.97;3.00;;;;;;;;;;5092005;28;20537;-57
2021/09/17 00:36:24;;;;;;;3.23;2.90;;;;;;;;;;5091367;28;20218;-57
2021/09/17 00:38:51;;;;;;;2.83;2.50;;;;;;;;;;5091251;28;20263;-57
2021/09/17 00:41:17;;;;;;;3.20;2.90;;;;;;;;;;5091112;28;20275;-57
2021/09/17 00:43:43;;;;;;;2.73;2.53;;;;;;;;;;5092357;28;20187;-57
2021/09/17 00:46:09;;;;;;;4.20;3.00;;;;;;;;;;5096060;28;20217;-57
2021/09/17 00:48:35;;;;;;;3.00;2.80;;;;;;;;;;5091524;28;20179;-57
2021/09/17 00:51:02;;;;;;;3.60;2.97;;;;;;;;;;5092258;28;20175;-57
2021/09/17 00:53:33;;;;;;;3.93;2.50;;;;;;;;;;5077330;28;20183;-57
2021/09/17 00:55:59;;;;;;;3.00;2.70;;;;;;;;;;5073767;28;20198;-58
2021/09/17 00:58:25;;;;;;;2.63;2.43;;;;;;;;;;5091676;28;20215;-58
2021/09/17 01:00:51;;;;;;;3.43;3.13;;;;;;;;;;5092755;28;20184;-58
2021/09/17 01:03:17;;;;;;;3.83;3.10;;;;;;;;;;5093223;28;20187;-58
2021/09/17 01:05:43;;;;;;;3.17;2.90;;;;;;;;;;5080614;28;20694;-58
2021/09/17 01:08:10;;;;;;;3.40;3.10;;;;;;;;;;5089048;28;20634;-58
2021/09/17 01:10:36;;;;;;;3.93;3.07;;;;;;;;;;5090283;28;20164;-58
2021/09/17 01:13:03;;;;;;;3.50;3.20;;;;;;;;;;5091060;28;20656;-58
2021/09/17 01:15:29;;;;;;;3.60;3.30;;;;;;;;;;5091668;28;20183;-58
2021/09/17 01:17:55;;;;;;;3.30;3.00;;;;;;;;;;5091632;28;20247;-58
2021/09/17 01:20:22;;;;;;;3.30;3.00;;;;;;;;;;5091194;28;20227;-58
2021/09/17 01:22:50;;;;;;;4.03;3.20;;;;;;;;;;5089962;28;20547;-58
2021/09/17 01:25:17;;;;;;;3.70;3.40;;;;;;;;;;5072347;28;20643;-58
2021/09/17 01:27:44;;;;;;;3.13;2.93;;;;;;;;;;5090388;28;20176;-58
2021/09/17 01:30:11;;;;;;;7.67;7.17;;;;;;;;;;5089938;28;20240;-58
2021/09/17 01:32:41;;;;;;;4.40;4.00;;;;;;;;;;5073461;28;20212;-58
2021/09/17 01:35:08;;;;;;;4.03;3.57;;;;;;;;;;5091395;28;20180;-58
2021/09/17 01:37:35;;;;;;;3.80;3.50;;;;;;;;;;5089557;28;20693;-58
2021/09/17 01:40:01;;;;;;;4.87;4.00;;;;;;;;;;5085067;28;20279;-58
2021/09/17 01:42:27;;;;;;;5.43;4.13;;;;;;;;;;5091268;28;20258;-58
2021/09/17 01:44:53;;;;;;;4.90;4.40;;;;;;;;;;5090649;28;20183;-58
2021/09/17 01:47:19;;;;;;;4.63;4.00;;;;;;;;;;5091020;28;20187;-58
2021/09/17 01:49:45;;;;;;;4.17;3.87;;;;;;;;;;5073299;28;20707;-58
2021/09/17 01:52:11;;;;;;;6.47;4.90;;;;;;;;;;5090851;28;20172;-58
2021/09/17 01:54:38;;;;;;;5.13;4.37;;;;;;;;;;5089238;28;20187;-58
2021/09/17 01:57:05;;;;;;;5.37;4.70;;;;;;;;;;5090942;28;20205;-59
2021/09/17 01:59:31;;;;;;;4.70;3.97;;;;;;;;;;5071178;28;20265;-58
2021/09/17 02:01:57;;;;;;;5.47;4.67;;;;;;;;;;5088210;28;20244;-58
2021/09/17 02:04:23;;;;;;;5.30;4.80;;;;;;;;;;5089827;28;20199;-58
2021/09/17 02:06:49;;;;;;;5.33;4.90;;;;;;;;;;5090001;28;20203;-58
2021/09/17 02:09:16;;;;;;;5.37;4.47;;;;;;;;;;5088760;28;20237;-58
2021/09/17 02:11:42;;;;;;;4.83;4.43;;;;;;;;;;5087549;28;20273;-58
2021/09/17 02:14:09;;;;;;;5.30;4.90;;;;;;;;;;5071053;28;20963;-58
2021/09/17 02:16:37;;;;;;;5.43;4.37;;;;;;;;;;5089985;28;20791;-58
2021/09/17 02:19:03;;;;;;;5.20;4.73;;;;;;;;;;5090266;28;20266;-58
2021/09/17 02:21:29;;;;;;;4.90;4.40;;;;;;;;;;5090970;28;20183;-58
2021/09/17 02:23:56;;;;;;;5.50;5.00;;;;;;;;;;5088542;28;20650;-58
2021/09/17 02:26:22;;;;;;;7.20;4.50;;;;;;;;;;5070630;28;20321;-58
2021/09/17 02:28:48;;;;;;;5.47;4.93;;;;;;;;;;5089584;28;20187;-58
2021/09/17 02:31:14;;;;;;;5.03;4.53;;;;;;;;;;5071790;28;20233;-58
2021/09/17 02:33:40;;;;;;;4.70;4.30;;;;;;;;;;5089611;28;20602;-58
2021/09/17 02:36:06;;;;;;;4.53;4.13;;;;;;;;;;5090365;28;20206;-58
2021/09/17 02:38:33;;;;;;;5.80;5.07;;;;;;;;;;5089857;28;20210;-58
2021/09/17 02:40:59;;;;;;;5.43;4.40;;;;;;;;;;5089733;28;20175;-58
2021/09/17 02:43:25;;;;;;;4.83;4.43;;;;;;;;;;5089864;28;20180;-58
2021/09/17 02:45:51;;;;;;;5.33;4.83;;;;;;;;;;5089887;28;20186;-58
2021/09/17 02:48:18;;;;;;;6.43;5.80;;;;;;;;;;5089511;28;20262;-58
2021/09/17 02:50:44;;;;;;;6.27;5.67;;;;;;;;;;5071459;28;20186;-58
2021/09/17 02:53:11;;;;;;;5.60;5.10;;;;;;;;;;5089720;28;20176;-58
2021/09/17 02:55:37;;;;;;;5.90;5.40;;;;;;;;;;5089106;28;20267;-58
2021/09/17 02:58:06;;;;;;;5.57;5.00;;;;;;;;;;5090202;28;20167;-58
2021/09/17 03:00:32;;;;;;;7.27;5.97;;;;;;;;;;5090180;28;20179;-58
2021/09/17 03:02:58;;;;;;;6.50;5.83;;;;;;;;;;5071869;28;20191;-58
2021/09/17 03:05:24;;;;;;;5.27;4.77;;;;;;;;;;5090586;28;20179;-58
2021/09/17 03:07:51;;;;;;;6.00;5.40;;;;;;;;;;5087539;28;20266;-58
2021/09/17 03:10:17;;;;;;;7.43;5.40;;;;;;;;;;5089122;28;20269;-58
2021/09/17 03:12:43;;;;;;;5.47;4.97;;;;;;;;;;5084563;28;20587;-58
2021/09/17 03:15:09;;;;;;;6.30;5.70;;;;;;;;;;5089917;28;20207;-58
2021/09/17 03:17:35;;;;;;;5.17;4.67;;;;;;;;;;5089832;28;20294;-58
2021/09/17 03:20:01;;;;;;;5.27;4.77;;;;;;;;;;5089196;28;20216;-58
2021/09/17 03:22:27;;;;;;;5.17;4.77;;;;;;;;;;5088512;28;20210;-58
2021/09/17 03:24:53;;;;;;;5.60;5.10;;;;;;;;;;5070132;28;20271;-58
2021/09/17 03:27:19;;;;;;;6.83;6.13;;;;;;;;;;5089448;28;20187;-58
2021/09/17 03:29:46;;;;;;;5.93;5.33;;;;;;;;;;5089372;28;20250;-58
2021/09/17 03:32:12;;;;;;;7.97;7.23;;;;;;;;;;5065086;28;20694;-59
2021/09/17 03:34:38;;;;;;;5.97;5.47;;;;;;;;;;5078887;28;20623;-58
2021/09/17 03:37:04;;;;;;;5.03;4.60;;;;;;;;;;5087206;28;20559;-58
2021/09/17 03:39:31;;;;;;;5.67;5.17;;;;;;;;;;5071928;28;20250;-58
2021/09/17 03:41:57;;;;;;;5.50;4.90;;;;;;;;;;5093320;28;20168;-58
2021/09/17 03:44:23;;;;;;;5.73;5.17;;;;;;;;;;5073740;28;20515;-58
2021/09/17 03:46:49;;;;;;;5.83;5.33;;;;;;;;;;5092340;28;20190;-58
2021/09/17 03:49:15;;;;;;;5.60;5.20;;;;;;;;;;5091833;28;20194;-58
2021/09/17 03:51:41;;;;;;;6.53;4.90;;;;;;;;;;5092491;28;20221;-58
2021/09/17 03:54:07;;;;;;;6.83;6.13;;;;;;;;;;5073514;28;20191;-58
2021/09/17 03:56:33;;;;;;;5.73;5.20;;;;;;;;;;5095117;28;20200;-58
2021/09/17 03:59:00;;;;;;;5.73;5.13;;;;;;;;;;5092942;28;20172;-58
2021/09/17 04:01:26;;;;;;;6.23;5.73;;;;;;;;;;5073742;28;20519;-58
2021/09/17 04:03:53;;;;;;;6.30;4.77;;;;;;;;;;5063965;28;20185;-58
2021/09/17 04:06:19;;;;;;;5.20;4.70;;;;;;;;;;5086342;28;20187;-58
2021/09/17 04:08:45;;;;;;;6.03;5.43;;;;;;;;;;5076572;28;20776;-58
2021/09/17 04:11:11;;;;;;;6.17;5.57;;;;;;;;;;5082439;28;20234;-58
2021/09/17 04:13:38;;;;;;;5.83;5.13;;;;;;;;;;5068135;28;20192;-58
2021/09/17 04:16:04;;;;;;;6.60;5.90;;;;;;;;;;5050134;28;20254;-58
2021/09/17 04:18:30;;;;;;;6.23;5.63;;;;;;;;;;5068205;28;20638;-58
2021/09/17 04:20:56;;;;;;;7.50;6.70;;;;;;;;;;5050622;28;20230;-58
2021/09/17 04:23:23;;;;;;;7.87;7.17;;;;;;;;;;5050053;28;20180;-58
2021/09/17 04:25:49;;;;;;;6.37;5.77;;;;;;;;;;5069373;28;20176;-58
2021/09/17 04:28:15;;;;;;;6.00;5.50;;;;;;;;;;5053332;28;20324;-58
2021/09/17 04:30:42;;;;;;;6.57;5.90;;;;;;;;;;5053134;28;20192;-58
2021/09/17 04:33:14;;;;;;;6.83;6.30;;;;;;;;;;5071661;28;20192;-58
2021/09/17 04:35:40;;;;;;;6.47;5.87;;;;;;;;;;5069805;28;20176;-58
2021/09/17 04:38:06;;;;;;;6.90;6.30;;;;;;;;;;5069185;28;20528;-58
2021/09/17 04:40:32;;;;;;;6.13;5.63;;;;;;;;;;5071225;28;20538;-58
2021/09/17 04:42:59;;;;;;;5.77;5.23;;;;;;;;;;5053436;28;20174;-58
2021/09/17 04:45:25;;;;;;;7.40;6.60;;;;;;;;;;5071366;28;20186;-58
2021/09/17 04:47:52;;;;;;;6.60;6.00;;;;;;;;;;5071118;28;20196;-58
2021/09/17 04:50:18;;;;;;;6.20;5.60;;;;;;;;;;5055040;28;20179;-58
2021/09/17 04:52:44;;;;;;;7.37;6.57;;;;;;;;;;5068521;28;20180;-58
2021/09/17 04:55:10;;;;;;;6.47;5.87;;;;;;;;;;5070724;28;20177;-58
2021/09/17 04:57:37;;;;;;;6.60;5.93;;;;;;;;;;5065986;28;20227;-58
2021/09/17 05:00:04;;;;;;;7.87;7.17;;;;;;;;;;5047678;28;20432;-58
2021/09/17 05:02:30;;;;;;;7.13;6.53;;;;;;;;;;5075512;28;20254;-58
2021/09/17 05:04:56;;;;;;;8.43;7.73;;;;;;;;;;5052452;28;20188;-58
2021/09/17 05:07:22;;;;;;;8.67;7.30;;;;;;;;;;5070206;28;20189;-58
2021/09/17 05:09:48;;;;;;;6.63;6.13;;;;;;;;;;5079284;28;20181;-58
2021/09/17 05:12:14;;;;;;;6.93;6.27;;;;;;;;;;5086905;28;20247;-58
2021/09/17 05:14:43;;;;;;;6.87;5.80;;;;;;;;;;5082129;28;20184;-58
2021/09/17 05:17:09;;;;;;;8.13;7.33;;;;;;;;;;5081206;28;20324;-58
2021/09/17 05:19:35;;;;;;;7.67;6.90;;;;;;;;;;5090005;28;20184;-58
2021/09/17 05:22:01;;;;;;;7.90;7.10;;;;;;;;;;5091300;28;20411;-58
2021/09/17 05:24:27;;;;;;;8.52;7.72;;;;;;;;;;5088979;28;21004;-58
2021/09/17 05:26:53;;;;;;;8.43;7.43;;;;;;;;;;5091257;28;20229;-58
2021/09/17 05:29:19;;;;;;;7.70;7.00;;;;;;;;;;5090495;28;20190;-58
2021/09/17 05:31:45;;;;;;;7.83;7.03;;;;;;;;;;5090775;28;20203;-58
2021/09/17 05:34:12;;;;;;;8.07;7.27;;;;;;;;;;5090100;28;20180;-58
2021/09/17 05:36:38;;;;;;;8.17;7.37;;;;;;;;;;5090549;28;20260;-58
2021/09/17 05:39:04;;;;;;;9.93;8.30;;;;;;;;;;5090060;28;20246;-58
2021/09/17 05:41:31;;;;;;;8.50;7.00;;;;;;;;;;5090047;28;20595;-58
2021/09/17 05:43:57;;;;;;;8.47;7.67;;;;;;;;;;5090757;28;20176;-58
2021/09/17 05:46:23;;;;;;;9.00;8.20;;;;;;;;;;5083820;28;20184;-58
2021/09/17 05:48:49;;;;;;;7.53;6.77;;;;;;;;;;5090344;28;20187;-58
2021/09/17 05:51:15;;;;;;;9.53;8.63;;;;;;;;;;5089776;28;20633;-58
2021/09/17 05:53:42;;;;;;;8.90;8.00;;;;;;;;;;5088525;28;20353;-58
2021/09/17 05:56:08;;;;;;;9.50;8.50;;;;;;;;;;5088770;28;20205;-58
2021/09/17 05:58:37;;;;;;;8.93;8.03;;;;;;;;;;5072324;28;20203;-58
2021/09/17 06:01:04;;;;;;;10.20;8.73;;;;;;;;;;5083262;28;20661;-58
2021/09/17 06:03:30;;;;;;;8.97;8.07;;;;;;;;;;5086665;28;20181;-58
2021/09/17 06:05:56;;;;;;;10.03;8.53;;;;;;;;;;5087800;28;20182;-58
2021/09/17 06:08:23;;;;;;;10.33;9.27;;;;;;;;;;5073227;28;20200;-58
2021/09/17 06:10:49;;;;;;;9.97;8.70;;;;;;;;;;5079218;28;20217;-58
2021/09/17 06:13:15;;;;;;;9.00;8.13;;;;;;;;;;5049831;28;20175;-58
2021/09/17 06:15:41;;;;;;;9.67;8.30;;;;;;;;;;5062508;28;20172;-58
2021/09/17 06:18:07;;;;;;;10.03;9.07;;;;;;;;;;5083903;28;20176;-58
2021/09/17 06:20:33;;;;;;;11.63;9.27;;;;;;;;;;5061980;28;20183;-58
2021/09/17 06:23:00;;;;;;;9.80;8.90;;;;;;;;;;5089450;28;20172;-58
2021/09/17 06:25:26;;;;;;;10.30;9.30;;;;;;;;;;5056326;28;20303;-58
2021/09/17 06:27:52;;;;;;;9.50;8.53;;;;;;;;;;5069417;28;20568;-58
2021/09/17 06:30:20;;;;;;;9.27;8.43;;;;;;;;;;5051587;28;20653;-58
2021/09/17 06:32:46;;;;;;;9.50;8.60;;;;;;;;;;5071826;28;20221;-58
2021/09/17 06:35:13;;;;;;;10.73;9.07;;;;;;;;;;5069149;28;20187;-58
2021/09/17 06:37:46;;;;;;;10.80;9.77;;;;;;;;;;5068835;28;20609;-58
2021/09/17 06:40:12;;;;;;;10.70;9.00;;;;;;;;;;5056399;28;20181;-58
2021/09/17 06:42:38;;;;;;;9.70;8.60;;;;;;;;;;5076690;28;20188;-58
2021/09/17 06:45:04;;;;;;;11.33;9.60;;;;;;;;;;5068960;28;20287;-58
2021/09/17 06:47:31;;;;;;;10.03;9.03;;;;;;;;;;5069110;28;20571;-58
2021/09/17 06:49:59;;;;;;;11.00;9.53;;;;;;;;;;5068759;28;20639;-58
2021/09/17 06:52:25;;;;;;;10.17;8.70;;;;;;;;;;5051940;28;20187;-57
2021/09/17 06:54:52;;;;;;;11.50;10.27;;;;;;;;;;5076235;28;20236;-58
2021/09/17 06:57:18;;;;;;;11.23;9.23;;;;;;;;;;5084803;28;20282;-57
2021/09/17 06:59:44;;;;;;;12.87;9.87;;;;;;;;;;5079012;28;20190;-58
2021/09/17 07:02:10;;;;;;;10.93;8.80;;;;;;;;;;5069047;28;20197;-58
2021/09/17 07:04:37;;;;;;;11.07;8.83;;;;;;;;;;5071861;28;20180;-58
2021/09/17 07:07:03;;;;;;;12.53;8.43;;;;;;;;;;5067477;28;20246;-58
2021/09/17 07:09:29;;;;;;;11.77;8.90;;;;;;;;;;5064349;28;20209;-58
2021/09/17 07:11:55;;;;;;;9.97;8.93;;;;;;;;;;5080020;28;20219;-58
2021/09/17 07:14:22;;;;;;;9.20;8.23;;;;;;;;;;5080881;28;20203;-58
2021/09/17 07:16:48;;;;;;;10.93;9.53;;;;;;;;;;5087211;28;20262;-58
2021/09/17 07:19:15;;;;;;;10.97;9.73;;;;;;;;;;5077533;28;20548;-58
2021/09/17 07:21:41;;;;;;;10.43;9.43;;;;;;;;;;5088842;28;20180;-58
2021/09/17 07:24:07;;;;;;;11.43;9.73;;;;;;;;;;5086711;28;20180;-58
2021/09/17 07:26:34;;;;;;;11.23;10.13;;;;;;;;;;5088085;28;20926;-58
2021/09/17 07:29:00;;;;;;;12.97;10.27;;;;;;;;;;5089387;28;20282;-58
2021/09/17 07:31:26;;;;;;;12.10;10.90;;;;;;;;;;5070478;28;20191;-58
2021/09/17 07:33:53;;;;;;;10.87;9.73;;;;;;;;;;5088748;28;20183;-58
2021/09/17 07:36:19;;;;;;;10.83;9.73;;;;;;;;;;5088535;28;20204;-58
2021/09/17 07:38:45;;;;;;;11.87;9.97;;;;;;;;;;5088277;28;20209;-58
2021/09/17 07:41:11;;;;;;;11.53;10.43;;;;;;;;;;5070082;28;20207;-58
2021/09/17 07:43:37;;;;;;;11.00;9.77;;;;;;;;;;5060248;28;20176;-58
2021/09/17 07:46:05;;;;;;;10.33;9.33;;;;;;;;;;5069629;28;20180;-58
2021/09/17 07:48:33;;;;;;;11.50;10.30;;;;;;;;;;5062310;28;20184;-58
2021/09/17 07:50:59;;;;;;;10.53;9.43;;;;;;;;;;5080224;28;20225;-58
2021/09/17 07:53:25;;;;;;;11.93;10.73;;;;;;;;;;5087707;28;20180;-58
2021/09/17 07:55:51;;;;;;;10.93;9.47;;;;;;;;;;5069393;28;20620;-58
2021/09/17 07:58:17;;;;;;;11.43;9.40;;;;;;;;;;5089030;28;20682;-58
2021/09/17 08:00:43;;;;;;;11.40;10.20;;;;;;;;;;5081451;28;20191;-57
2021/09/17 08:03:09;;;;;;;10.87;9.77;;;;;;;;;;5088958;28;20180;-57
2021/09/17 08:05:36;;;;;;;11.07;9.97;;;;;;;;;;5072209;28;20258;-57
2021/09/17 08:08:02;;;;;;;11.63;10.40;;;;;;;;;;5087865;28;20187;-57
2021/09/17 08:10:29;;;;;;;12.93;10.17;;;;;;;;;;5072462;28;20176;-58
2021/09/17 08:12:55;;;;;;;12.33;9.83;;;;;;;;;;5088361;28;20248;-58
2021/09/17 08:15:21;;;;;;;10.27;9.27;;;;;;;;;;5069746;28;20252;-58
2021/09/17 08:17:47;;;;;;;11.23;10.13;;;;;;;;;;5070675;28;20192;-58
2021/09/17 08:20:14;;;;;;;11.50;10.30;;;;;;;;;;5086759;28;20178;-58
2021/09/17 08:22:40;;;;;;;13.60;11.23;;;;;;;;;;5085629;28;20176;-58
2021/09/17 08:25:07;;;;;;;11.87;10.70;;;;;;;;;;5089228;28;20168;-58
2021/09/17 08:27:33;;;;;;;11.70;9.90;;;;;;;;;;5071522;28;20176;-58
2021/09/17 08:30:00;;;;;;;11.43;10.27;;;;;;;;;;5077347;28;20294;-58
2021/09/17 08:32:26;;;;;;;12.53;11.23;;;;;;;;;;5091773;28;20191;-58
2021/09/17 08:34:52;;;;;;;12.03;10.80;;;;;;;;;;5091355;28;20199;-58
2021/09/17 08:37:18;;;;;;;12.80;11.50;;;;;;;;;;5073397;28;20681;-58
2021/09/17 08:39:45;;;;;;;13.13;11.70;;;;;;;;;;5090249;28;20427;-58
2021/09/17 08:42:11;;;;;;;10.87;9.77;;;;;;;;;;5090423;28;20258;-58
2021/09/17 08:44:38;;;;;;;11.50;10.40;;;;;;;;;;5089977;28;20526;-58
2021/09/17 08:47:06;;;;;;;14.00;12.03;;;;;;;;;;5090683;28;20196;-58
2021/09/17 08:49:33;;;;;;;13.67;12.27;;;;;;;;;;5087235;28;20971;-58
2021/09/17 08:51:59;;;;;;;13.70;12.03;;;;;;;;;;5073805;28;20227;-57
2021/09/17 08:54:26;;;;;;;13.97;12.53;;;;;;;;;;5072205;28;20180;-57
2021/09/17 08:56:52;;;;;;;13.33;11.93;;;;;;;;;;5073388;28;20246;-57
2021/09/17 08:59:19;;;;;;;13.27;11.97;;;;;;;;;;5072991;28;20180;-57
2021/09/17 09:01:45;;;;;;;14.60;13.10;;;;;;;;;;5056522;28;20729;-57
2021/09/17 09:04:13;;;;;;;15.70;13.63;;;;;;;;;;5091036;28;20176;-57
2021/09/17 09:06:42;;;;;;;15.00;13.17;;;;;;;;;;5091048;28;20518;-57
2021/09/17 09:09:18;;;;;;;15.97;12.77;;;;;;;;;;5072361;28;20176;-57
2021/09/17 09:11:48;;;;;;;12.63;11.40;;;;;;;;;;5079063;28;20306;-57
2021/09/17 09:14:15;;;;;;;12.93;11.73;;;;;;;;;;5066977;28;20639;-57
2021/09/17 09:16:44;;;;;;;15.23;12.63;;;;;;;;;;5071670;28;20342;-57
2021/09/17 09:19:17;;;;;;;14.03;11.40;;;;;;;;;;5070765;28;20546;-57
2021/09/17 09:21:43;;;;;;;15.67;13.97;;;;;;;;;;5073894;28;20522;-57
2021/09/17 09:24:09;;;;;;;13.70;12.30;;;;;;;;;;5070354;28;20179;-57
2021/09/17 09:26:36;;;;;;;13.47;12.17;;;;;;;;;;5049109;28;20179;-57
2021/09/17 09:29:02;;;;;;;16.23;12.57;;;;;;;;;;5091137;28;20228;-57
2021/09/17 09:31:38;;;;;;;13.83;12.33;;;;;;;;;;5071415;28;20188;-57
2021/09/17 09:34:05;;;;;;;14.10;12.13;;;;;;;;;;5070542;28;20195;-57
2021/09/17 09:36:35;;;;;;;16.13;12.23;;;;;;;;;;5057044;28;20196;-58
2021/09/17 09:39:01;;;;;;;14.60;11.97;;;;;;;;;;5053596;28;20213;-57
2021/09/17 09:41:28;;;;;;;15.47;12.80;;;;;;;;;;5070604;28;20287;-58
2021/09/17 09:43:56;;;;;;;14.97;13.47;;;;;;;;;;5052470;28;20173;-58
2021/09/17 09:46:24;;;;;;;14.73;12.30;;;;;;;;;;5053958;28;20287;-58
2021/09/17 09:49:02;;;;;;;14.40;12.13;;;;;;;;;;5070938;28;20251;-58
2021/09/17 09:51:49;;;;;;;15.57;12.83;;;;;;;;;;5069800;28;20195;-58
2021/09/17 09:54:16;;;;;;;14.50;12.97;;;;;;;;;;5055712;28;20638;-58
2021/09/17 09:56:43;;;;;;;14.27;12.87;;;;;;;;;;5051646;28;20218;-58
2021/09/17 09:59:09;;;;;;;14.70;12.93;;;;;;;;;;5052092;28;20200;-58
2021/09/17 10:01:39;;;;;;;14.30;12.17;;;;;;;;;;5058862;28;20188;-58
2021/09/17 10:04:06;;;;;;;13.27;11.80;;;;;;;;;;5052477;28;20182;-57
2021/09/17 10:06:37;;;;;;;15.43;13.07;;;;;;;;;;5052682;28;20284;-57
2021/09/17 10:09:05;;;;;;;14.57;12.07;;;;;;;;;;5059464;28;20642;-58
2021/09/17 10:11:31;;;;;;;13.67;12.27;;;;;;;;;;5051344;28;20240;-58
2021/09/17 10:14:00;;;;;;;13.43;12.03;;;;;;;;;;5051602;28;20191;-58
2021/09/17 10:16:28;;;;;;;12.67;11.37;;;;;;;;;;5050126;28;20570;-58
2021/09/17 10:18:54;;;;;;;14.10;11.53;;;;;;;;;;5052239;28;20177;-58
2021/09/17 10:21:39;;;;;;;16.67;11.57;;;;;;;;;;5069188;28;20180;-58
2021/09/17 10:24:24;;;;;;;13.20;11.43;;;;;;;;;;5069185;28;20213;-58
2021/09/17 10:26:57;;;;;;;12.37;11.07;;;;;;;;;;5060194;28;20176;-58
2021/09/17 10:29:30;;;;;;;12.63;11.07;;;;;;;;;;5069575;28;20774;-58
2021/09/17 10:31:59;;;;;;;12.20;11.00;;;;;;;;;;5068724;28;20299;-58
2021/09/17 10:34:34;;;;;;;14.73;11.77;;;;;;;;;;5050805;28;20261;-58
2021/09/17 10:37:00;;;;;;;12.90;11.57;;;;;;;;;;5067412;28;20257;-58
2021/09/17 10:39:27;;;;;;;13.57;11.60;;;;;;;;;;5048592;28;20187;-58
2021/09/17 10:42:06;;;;;;;11.60;10.50;;;;;;;;;;5051298;28;20623;-57
2021/09/17 10:44:33;;;;;;;13.30;11.90;;;;;;;;;;5051903;28;20706;-58
2021/09/17 10:46:59;;;;;;;12.67;10.83;;;;;;;;;;5067922;28;20666;-58
2021/09/17 10:49:45;;;;;;;15.57;12.40;;;;;;;;;;5050056;28;20189;-58
2021/09/17 10:52:48;;;;;;;13.83;11.83;;;;;;;;;;5050238;28;20184;-58
2021/09/17 10:55:33;;;;;;;11.90;10.70;;;;;;;;;;4958831;28;20585;-58
2021/09/17 10:58:18;;;;;;;13.77;11.03;;;;;;;;;;5060678;28;20208;-58
2021/09/17 11:01:16;;;;;;;11.47;10.33;;;;;;;;;;5066991;28;20180;-58
2021/09/17 11:03:45;;;;;;;15.70;10.50;;;;;;;;;;5017435;28;20279;-58
2021/09/17 11:08:47;;;;;;;13.60;11.90;;;;;;;;;;5067505;28;20176;-57
2021/09/17 11:11:33;;;;;;;19.48;17.52;;;;;;;;;;5072226;28;20462;-57
2021/09/17 11:14:00;;;;;;;20.27;16.47;;;;;;;;;;5087345;28;20176;-58
2021/09/17 11:16:27;;;;;;;19.60;16.87;;;;;;;;;;5069331;28;20203;-58
2021/09/17 11:19:00;;;;;;;21.10;19.00;;;;;;;;;;5085705;28;20179;-58
2021/09/17 11:21:31;;;;;;;19.50;17.37;;;;;;;;;;5081921;28;20187;-58
2021/09/17 11:23:58;;;;;;;25.60;19.53;;;;;;;;;;5068905;28;20183;-57
2021/09/17 11:26:25;;;;;;;23.07;19.63;;;;;;;;;;5087400;28;20175;-58
2021/09/17 11:29:01;;;;;;;18.73;16.63;;;;;;;;;;5088210;28;20180;-58
2021/09/17 11:31:31;;;;;;;21.00;18.97;;;;;;;;;;5085530;28;20177;-58
2021/09/17 11:33:58;;;;;;;20.83;18.93;;;;;;;;;;5085791;28;20199;-58
2021/09/17 11:36:38;;;;;;;21.87;19.37;;;;;;;;;;5078111;28;20430;-57
2021/09/17 11:39:30;;;;;;;22.23;19.93;;;;;;;;;;5068671;28;20710;-57
2021/09/17 11:42:02;;;;;;;20.53;18.63;;;;;;;;;;5048137;28;20679;-57
2021/09/17 11:44:29;;;;;;;20.67;18.57;;;;;;;;;;5067371;28;20188;-58
2021/09/17 11:46:55;;;;;;;21.80;19.60;;;;;;;;;;5052115;28;20238;-57
2021/09/17 11:49:32;;;;;;;21.73;18.13;;;;;;;;;;5087206;28;20640;-57
2021/09/17 11:52:02;;;;;;;22.38;20.08;;;;;;;;;;5087755;28;20870;-57
2021/09/17 11:54:29;;;;;;;20.60;18.67;;;;;;;;;;5086380;28;20237;-58
2021/09/17 11:57:06;;;;;;;20.93;18.67;;;;;;;;;;5070487;28;20196;-57
2021/09/17 11:59:32;;;;;;;24.37;21.67;;;;;;;;;;5071131;28;20187;-57
2021/09/17 12:02:25;;;;;;;21.73;18.53;;;;;;;;;;5060847;28;20207;-57
2021/09/17 12:04:53;;;;;;;20.50;17.83;;;;;;;;;;5067120;28;20185;-57
2021/09/17 12:07:20;;;;;;;21.37;18.50;;;;;;;;;;5092054;28;20183;-57
2021/09/17 12:09:46;;;;;;;19.83;17.93;;;;;;;;;;5072483;28;20845;-57
2021/09/17 12:12:13;;;;;;;19.63;17.57;;;;;;;;;;5091836;28;20227;-57
2021/09/17 12:14:40;;;;;;;18.80;16.77;;;;;;;;;;5091474;28;20191;-57
2021/09/17 12:17:07;;;;;;;20.13;18.03;;;;;;;;;;5091594;28;20613;-58
2021/09/17 12:19:52;;;;;;;21.23;19.00;;;;;;;;;;5091852;28;20176;-57
2021/09/17 12:22:26;;;;;;;21.23;19.23;;;;;;;;;;5091430;28;20184;-57
2021/09/17 12:25:01;;;;;;;20.20;18.20;;;;;;;;;;5072475;28;20183;-57
2021/09/17 12:27:31;;;;;;;19.83;17.83;;;;;;;;;;5090240;28;20197;-57
2021/09/17 12:29:59;;;;;;;18.10;16.20;;;;;;;;;;5086897;28;20249;-57
2021/09/17 12:32:26;;;;;;;20.13;17.03;;;;;;;;;;5080323;28;20199;-57
2021/09/17 12:35:11;;;;;;;19.30;16.77;;;;;;;;;;5080480;28;20523;-57
2021/09/17 12:37:37;;;;;;;18.00;16.10;;;;;;;;;;5089932;28;20191;-57
2021/09/17 12:40:11;;;;;;;18.43;16.57;;;;;;;;;;5087559;28;20195;-57
2021/09/17 12:42:37;;;;;;;17.70;15.70;;;;;;;;;;5091704;28;20686;-57
2021/09/17 12:45:04;;;;;;;18.93;16.67;;;;;;;;;;5092488;28;20517;-57
2021/09/17 12:47:30;;;;;;;21.00;17.07;;;;;;;;;;5073474;28;20179;-57
2021/09/17 12:50:10;;;;;;;23.23;17.23;;;;;;;;;;5087724;28;20182;-57
2021/09/17 12:52:37;;;;;;;17.83;15.93;;;;;;;;;;5070100;28;20243;-57
2021/09/17 12:55:05;;;;;;;19.63;16.87;;;;;;;;;;5080259;28;20218;-57
2021/09/17 12:57:31;;;;;;;19.50;16.77;;;;;;;;;;5085347;28;20200;-57
2021/09/17 12:59:58;;;;;;;18.60;16.20;;;;;;;;;;5083630;28;20175;-57
2021/09/17 13:02:25;;;;;;;22.37;17.17;;;;;;;;;;5085245;28;20259;-58
2021/09/17 13:05:01;;;;;;;19.37;16.50;;;;;;;;;;5088880;28;20185;-58
2021/09/17 13:07:27;;;;;;;23.53;17.87;;;;;;;;;;5087637;28;20188;-58
2021/09/17 13:09:54;;;;;;;22.37;17.57;;;;;;;;;;5077539;28;20181;-58
2021/09/17 13:12:20;;;;;;;21.47;17.73;;;;;;;;;;5076024;28;20220;-58
2021/09/17 13:14:46;;;;;;;19.63;16.40;;;;;;;;;;5081903;28;20899;-58
2021/09/17 13:17:13;;;;;;;21.13;16.67;;;;;;;;;;5079911;28;20212;-57
2021/09/17 13:19:40;;;;;;;20.67;16.77;;;;;;;;;;5094478;28;20234;-57
2021/09/17 13:22:06;;;;;;;18.17;15.73;;;;;;;;;;5072321;28;20179;-58
2021/09/17 13:24:32;;;;;;;20.17;16.27;;;;;;;;;;5068139;28;20176;-58
2021/09/17 13:26:58;;;;;;;18.90;15.17;;;;;;;;;;5070113;28;20237;-58
2021/09/17 13:29:24;;;;;;;17.80;14.60;;;;;;;;;;5087526;28;20223;-57
2021/09/17 13:31:51;;;;;;;18.80;16.17;;;;;;;;;;5071130;28;20205;-58
2021/09/17 13:34:17;;;;;;;19.77;15.27;;;;;;;;;;5089899;28;20540;-57
2021/09/17 13:36:43;;;;;;;16.47;14.07;;;;;;;;;;5072588;28;20566;-57
2021/09/17 13:39:09;;;;;;;18.10;14.50;;;;;;;;;;5071027;28;20172;-58
2021/09/17 13:41:35;;;;;;;15.90;13.93;;;;;;;;;;5075119;28;20847;-57
2021/09/17 13:44:02;;;;;;;16.23;14.23;;;;;;;;;;5092237;28;20178;-58
2021/09/17 13:46:28;;;;;;;16.67;13.73;;;;;;;;;;5089877;28;20183;-57
2021/09/17 13:48:54;;;;;;;17.50;14.17;;;;;;;;;;5076009;28;20643;-57
2021/09/17 13:51:20;;;;;;;17.10;14.47;;;;;;;;;;5099690;28;20210;-57
2021/09/17 13:53:46;;;;;;;21.70;13.13;;;;;;;;;;5080635;28;20523;-57
2021/09/17 13:56:13;;;;;;;14.57;13.03;;;;;;;;;;5073397;28;20724;-58
2021/09/17 13:58:39;;;;;;;15.60;12.97;;;;;;;;;;5063942;28;20298;-58
2021/09/17 14:01:06;;;;;;;14.33;12.93;;;;;;;;;;5075029;28;20177;-58
2021/09/17 14:03:32;;;;;;;13.40;12.07;;;;;;;;;;5074093;28;20179;-57
2021/09/17 14:05:58;;;;;;;14.80;12.30;;;;;;;;;;5083418;28;20188;-58
2021/09/17 14:08:24;;;;;;;14.43;12.90;;;;;;;;;;5074966;28;20185;-57
2021/09/17 14:10:50;;;;;;;13.43;12.10;;;;;;;;;;5089729;28;20229;-57
2021/09/17 14:13:17;;;;;;;14.10;12.70;;;;;;;;;;5062260;28;20329;-57
2021/09/17 14:15:43;;;;;;;13.93;12.27;;;;;;;;;;5080568;28;20190;-57
2021/09/17 14:18:09;;;;;;;13.23;11.83;;;;;;;;;;5089525;28;20274;-57
2021/09/17 14:20:37;;;;;;;13.37;11.97;;;;;;;;;;5089630;28;20319;-58
2021/09/17 14:23:03;;;;;;;12.67;11.37;;;;;;;;;;5070114;28;20261;-57
2021/09/17 14:25:30;;;;;;;14.47;13.07;;;;;;;;;;5081893;28;20236;-58
2021/09/17 14:27:56;;;;;;;16.03;12.90;;;;;;;;;;5054399;28;20204;-57
2021/09/17 14:30:22;;;;;;;13.70;12.30;;;;;;;;;;5097651;28;20176;-57
2021/09/17 14:32:53;;;;;;;13.67;12.37;;;;;;;;;;5054850;28;20556;-57
2021/09/17 14:35:20;;;;;;;14.47;13.07;;;;;;;;;;5084280;28;20522;-57
2021/09/17 14:37:46;;;;;;;16.13;13.17;;;;;;;;;;5087342;28;20218;-57